sensor_id;sensor_type;location;lat;lon;timestamp;pressure;altitude;pressure_sealevel;temperature;humidity
73341;BME280;61578;52.002;5.468;2023-09-19T00:00:17;100664.63;;;16.39;84.80
73341;BME280;61578;52.002;5.468;2023-09-19T00:00:49;100657.59;;;16.38;84.58
73341;BME280;61578;52.002;5.468;2023-09-19T00:01:21;100665.34;;;16.41;85.53
73341;BME280;61578;52.002;5.468;2023-09-19T00:01:55;100662.78;;;16.40;84.99
73341;BME280;61578;52.002;5.468;2023-09-19T00:02:27;100657.75;;;16.37;84.93
73341;BME280;61578;52.002;5.468;2023-09-19T00:02:58;100663.78;;;16.39;85.59
73341;BME280;61578;52.002;5.468;2023-09-19T00:03:32;100667.31;;;16.39;85.44
73341;BME280;61578;52.002;5.468;2023-09-19T00:04:02;100667.88;;;16.43;85.62
73341;BME280;61578;52.002;5.468;2023-09-19T00:04:33;100663.78;;;16.39;85.06
73341;BME280;61578;52.002;5.468;2023-09-19T00:05:04;100667.31;;;16.39;84.68
73341;BME280;61578;52.002;5.468;2023-09-19T00:05:37;100664.63;;;16.39;84.94
73341;BME280;61578;52.002;5.468;2023-09-19T00:06:09;100672.25;;;16.44;85.09
73341;BME280;61578;52.002;5.468;2023-09-19T00:06:40;100666.06;;;16.43;84.96
73341;BME280;61578;52.002;5.468;2023-09-19T00:07:11;100672.13;;;16.45;85.21
73341;BME280;61578;52.002;5.468;2023-09-19T00:07:42;100670.69;;;16.41;84.89
73341;BME280;61578;52.002;5.468;2023-09-19T00:08:15;100632.31;;;16.22;85.70
73341;BME280;61578;52.002;5.468;2023-09-19T00:08:49;100672.97;;;16.46;85.99
73341;BME280;61578;52.002;5.468;2023-09-19T00:09:19;100674.53;;;16.48;85.23
73341;BME280;61578;52.002;5.468;2023-09-19T00:09:50;100676.38;;;16.48;85.46
73341;BME280;61578;52.002;5.468;2023-09-19T00:10:21;100671.41;;;16.43;85.32
73341;BME280;61578;52.002;5.468;2023-09-19T00:10:54;100672.84;;;16.47;85.16
73341;BME280;61578;52.002;5.468;2023-09-19T00:11:25;100660.81;;;16.42;85.86
73341;BME280;61578;52.002;5.468;2023-09-19T00:11:57;100676.91;;;16.51;84.99
73341;BME280;61578;52.002;5.468;2023-09-19T00:12:28;100678.88;;;16.49;84.98
73341;BME280;61578;52.002;5.468;2023-09-19T00:12:59;100639.97;;;16.26;85.24
73341;BME280;61578;52.002;5.468;2023-09-19T00:13:30;100676.19;;;16.49;84.61
73341;BME280;61578;52.002;5.468;2023-09-19T00:14:01;100671.13;;;16.46;85.12
73341;BME280;61578;52.002;5.468;2023-09-19T00:14:32;100671.69;;;16.50;85.90
73341;BME280;61578;52.002;5.468;2023-09-19T00:15:07;100679.31;;;16.54;85.50
73341;BME280;61578;52.002;5.468;2023-09-19T00:15:44;100677.34;;;16.56;85.08
73341;BME280;61578;52.002;5.468;2023-09-19T00:16:19;100683.69;;;16.55;84.76
73341;BME280;61578;52.002;5.468;2023-09-19T00:16:50;100668.59;;;16.54;84.69
73341;BME280;61578;52.002;5.468;2023-09-19T00:17:21;100685.41;;;16.56;84.87
73341;BME280;61578;52.002;5.468;2023-09-19T00:17:52;100637.41;;;16.25;84.86
73341;BME280;61578;52.002;5.468;2023-09-19T00:18:25;100669.72;;;16.42;84.85
73341;BME280;61578;52.002;5.468;2023-09-19T00:19:02;100670.16;;;16.47;85.98
73341;BME280;61578;52.002;5.468;2023-09-19T00:19:34;100662.66;;;16.41;85.86
73341;BME280;61578;52.002;5.468;2023-09-19T00:20:15;100668.72;;;16.43;85.89
73341;BME280;61578;52.002;5.468;2023-09-19T00:20:49;100681.16;;;16.44;85.56
73341;BME280;61578;52.002;5.468;2023-09-19T00:21:21;100674.94;;;16.44;86.31
73341;BME280;61578;52.002;5.468;2023-09-19T00:21:52;100673.09;;;16.44;86.36
73341;BME280;61578;52.002;5.468;2023-09-19T00:22:23;100675.91;;;16.43;86.25
73341;BME280;61578;52.002;5.468;2023-09-19T00:22:56;100661.25;;;16.37;85.99
73341;BME280;61578;52.002;5.468;2023-09-19T00:23:29;100676.78;;;16.43;85.76
73341;BME280;61578;52.002;5.468;2023-09-19T00:24:01;100682.13;;;16.43;86.19
73341;BME280;61578;52.002;5.468;2023-09-19T00:24:32;100672.66;;;16.39;85.61
73341;BME280;61578;52.002;5.468;2023-09-19T00:25:03;100684.81;;;16.43;85.48
73341;BME280;61578;52.002;5.468;2023-09-19T00:25:38;100684.69;;;16.45;85.80
73341;BME280;61578;52.002;5.468;2023-09-19T00:26:09;100649.09;;;16.24;85.16
73341;BME280;61578;52.002;5.468;2023-09-19T00:26:39;100672.53;;;16.41;86.05
73341;BME280;61578;52.002;5.468;2023-09-19T00:27:13;100684.94;;;16.42;86.04
73341;BME280;61578;52.002;5.468;2023-09-19T00:27:44;100684.94;;;16.42;86.02
73341;BME280;61578;52.002;5.468;2023-09-19T00:28:15;100683.25;;;16.41;85.72
73341;BME280;61578;52.002;5.468;2023-09-19T00:28:47;100688.06;;;16.37;85.78
73341;BME280;61578;52.002;5.468;2023-09-19T00:29:18;100682.13;;;16.43;86.11
73341;BME280;61578;52.002;5.468;2023-09-19T00:29:49;100684.69;;;16.45;85.94
73341;BME280;61578;52.002;5.468;2023-09-19T00:30:19;100687.50;;;16.43;86.47
73341;BME280;61578;52.002;5.468;2023-09-19T00:30:51;100684.09;;;16.41;87.08
73341;BME280;61578;52.002;5.468;2023-09-19T00:31:21;100660.41;;;16.27;86.89
73341;BME280;61578;52.002;5.468;2023-09-19T00:31:56;100690.88;;;16.45;86.82
73341;BME280;61578;52.002;5.468;2023-09-19T00:32:27;100687.50;;;16.43;87.12
73341;BME280;61578;52.002;5.468;2023-09-19T00:33:02;100682.97;;;16.44;86.74
73341;BME280;61578;52.002;5.468;2023-09-19T00:33:36;100681.00;;;16.46;86.61
73341;BME280;61578;52.002;5.468;2023-09-19T00:34:07;100689.91;;;16.46;86.28
73341;BME280;61578;52.002;5.468;2023-09-19T00:34:40;100678.47;;;16.44;86.39
73341;BME280;61578;52.002;5.468;2023-09-19T00:35:16;100686.91;;;16.49;86.70
73341;BME280;61578;52.002;5.468;2023-09-19T00:35:48;100688.63;;;16.50;86.60
73341;BME280;61578;52.002;5.468;2023-09-19T00:36:20;100686.66;;;16.52;87.10
73341;BME280;61578;52.002;5.468;2023-09-19T00:36:51;100699.06;;;16.53;87.41
73341;BME280;61578;52.002;5.468;2023-09-19T00:37:23;100690.88;;;16.55;87.64
73341;BME280;61578;52.002;5.468;2023-09-19T00:37:55;100688.34;;;16.53;87.12
73341;BME280;61578;52.002;5.468;2023-09-19T00:38:26;100702.31;;;16.57;86.68
73341;BME280;61578;52.002;5.468;2023-09-19T00:38:59;100658.28;;;16.40;86.59
73341;BME280;61578;52.002;5.468;2023-09-19T00:39:30;100695.81;;;16.60;86.76
73341;BME280;61578;52.002;5.468;2023-09-19T00:40:04;100687.78;;;16.60;86.75
73341;BME280;61578;52.002;5.468;2023-09-19T00:40:36;100691.19;;;16.62;87.09
73341;BME280;61578;52.002;5.468;2023-09-19T00:41:07;100681.72;;;16.58;86.70
73341;BME280;61578;52.002;5.468;2023-09-19T00:41:37;100688.53;;;16.62;86.61
73341;BME280;61578;52.002;5.468;2023-09-19T00:42:18;100681.56;;;16.59;85.99
73341;BME280;61578;52.002;5.468;2023-09-19T00:42:51;100691.91;;;16.64;86.03
73341;BME280;61578;52.002;5.468;2023-09-19T00:43:23;100688.38;;;16.63;86.88
73341;BME280;61578;52.002;5.468;2023-09-19T00:43:54;100698.25;;;16.63;86.25
73341;BME280;61578;52.002;5.468;2023-09-19T00:44:25;100695.31;;;16.66;86.35
73341;BME280;61578;52.002;5.468;2023-09-19T00:44:57;100693.59;;;16.65;86.35
73341;BME280;61578;52.002;5.468;2023-09-19T00:45:27;100690.47;;;16.69;87.33
73341;BME280;61578;52.002;5.468;2023-09-19T00:45:58;100654.22;;;16.46;86.70
73341;BME280;61578;52.002;5.468;2023-09-19T00:46:31;100697.72;;;16.69;86.23
73341;BME280;61578;52.002;5.468;2023-09-19T00:47:03;100691.78;;;16.65;86.77
73341;BME280;61578;52.002;5.468;2023-09-19T00:47:34;100694.88;;;16.70;87.17
73341;BME280;61578;52.002;5.468;2023-09-19T00:48:06;100636.44;;;16.35;86.68
73341;BME280;61578;52.002;5.468;2023-09-19T00:48:41;100690.34;;;16.71;87.06
73341;BME280;61578;52.002;5.468;2023-09-19T00:49:15;100698.38;;;16.71;86.54
73341;BME280;61578;52.002;5.468;2023-09-19T00:49:47;100689.09;;;16.65;86.38
73341;BME280;61578;52.002;5.468;2023-09-19T00:50:25;100696.00;;;16.68;86.12
73341;BME280;61578;52.002;5.468;2023-09-19T00:51:02;100692.34;;;16.69;86.34
73341;BME280;61578;52.002;5.468;2023-09-19T00:51:35;100695.03;;;16.69;86.46
73341;BME280;61578;52.002;5.468;2023-09-19T00:52:06;100694.59;;;16.64;86.20
73341;BME280;61578;52.002;5.468;2023-09-19T00:52:42;100698.97;;;16.65;85.73
73341;BME280;61578;52.002;5.468;2023-09-19T00:53:20;100707.00;;;16.65;85.98
73341;BME280;61578;52.002;5.468;2023-09-19T00:53:54;100703.72;;;16.61;86.25
73341;BME280;61578;52.002;5.468;2023-09-19T00:54:25;100701.03;;;16.61;85.99
73341;BME280;61578;52.002;5.468;2023-09-19T00:54:58;100702.31;;;16.57;85.74
73341;BME280;61578;52.002;5.468;2023-09-19T00:55:31;100705.84;;;16.58;85.89
73341;BME280;61578;52.002;5.468;2023-09-19T00:56:03;100705.00;;;16.57;86.58
73341;BME280;61578;52.002;5.468;2023-09-19T00:56:38;100709.53;;;16.56;86.41
73341;BME280;61578;52.002;5.468;2023-09-19T00:57:10;100692.00;;;16.43;86.74
73341;BME280;61578;52.002;5.468;2023-09-19T00:57:42;100702.72;;;16.52;86.58
73341;BME280;61578;52.002;5.468;2023-09-19T00:58:14;100667.47;;;16.28;86.80
73341;BME280;61578;52.002;5.468;2023-09-19T00:58:47;100710.06;;;16.50;86.89
73341;BME280;61578;52.002;5.468;2023-09-19T00:59:19;100707.09;;;16.53;86.86
73341;BME280;61578;52.002;5.468;2023-09-19T00:59:53;100707.97;;;16.54;86.36
73341;BME280;61578;52.002;5.468;2023-09-19T01:00:26;100706.13;;;16.54;86.43
73341;BME280;61578;52.002;5.468;2023-09-19T01:01:01;100710.78;;;16.52;86.32
73341;BME280;61578;52.002;5.468;2023-09-19T01:01:37;100701.75;;;16.53;86.71
73341;BME280;61578;52.002;5.468;2023-09-19T01:02:10;100708.38;;;16.49;86.26
73341;BME280;61578;52.002;5.468;2023-09-19T01:02:44;100710.78;;;16.52;86.45
73341;BME280;61578;52.002;5.468;2023-09-19T01:03:16;100703.72;;;16.51;86.34
73341;BME280;61578;52.002;5.468;2023-09-19T01:03:49;100712.19;;;16.56;86.83
73341;BME280;61578;52.002;5.468;2023-09-19T01:04:20;100702.47;;;16.55;86.61
73341;BME280;61578;52.002;5.468;2023-09-19T01:04:51;100706.69;;;16.58;86.75
73341;BME280;61578;52.002;5.468;2023-09-19T01:05:29;100711.03;;;16.59;86.98
73341;BME280;61578;52.002;5.468;2023-09-19T01:06:00;100703.31;;;16.56;87.01
73341;BME280;61578;52.002;5.468;2023-09-19T01:06:32;100670.84;;;16.40;86.75
73341;BME280;61578;52.002;5.468;2023-09-19T01:07:03;100707.56;;;16.59;86.96
73341;BME280;61578;52.002;5.468;2023-09-19T01:07:34;100705.44;;;16.62;86.29
73341;BME280;61578;52.002;5.468;2023-09-19T01:08:05;100708.13;;;16.62;86.30
73341;BME280;61578;52.002;5.468;2023-09-19T01:08:37;100707.28;;;16.62;86.53
73341;BME280;61578;52.002;5.468;2023-09-19T01:09:08;100700.19;;;16.61;86.73
73341;BME280;61578;52.002;5.468;2023-09-19T01:09:39;100711.25;;;16.67;87.05
73341;BME280;61578;52.002;5.468;2023-09-19T01:10:15;100705.44;;;16.62;87.17
73341;BME280;61578;52.002;5.468;2023-09-19T01:11:00;100712.38;;;16.65;87.02
73341;BME280;61578;52.002;5.468;2023-09-19T01:11:47;100711.13;;;16.69;86.58
73341;BME280;61578;52.002;5.468;2023-09-19T01:12:33;100715.47;;;16.70;87.01
73341;BME280;61578;52.002;5.468;2023-09-19T01:13:51;100714.34;;;16.72;86.86
73341;BME280;61578;52.002;5.468;2023-09-19T01:17:32;100712.94;;;16.78;86.88
73341;BME280;61578;52.002;5.468;2023-09-19T01:18:30;100707.41;;;16.79;86.97
73341;BME280;61578;52.002;5.468;2023-09-19T01:23:36;100718.59;;;16.84;86.79
73341;BME280;61578;52.002;5.468;2023-09-19T01:24:48;100720.41;;;16.84;86.62
73341;BME280;61578;52.002;5.468;2023-09-19T01:28:53;100718.59;;;16.84;86.07
73341;BME280;61578;52.002;5.468;2023-09-19T01:29:50;100715.19;;;16.82;85.85
73341;BME280;61578;52.002;5.468;2023-09-19T01:30:24;100724.22;;;16.81;86.20
73341;BME280;61578;52.002;5.468;2023-09-19T01:31:02;100724.53;;;16.78;85.58
73341;BME280;61578;52.002;5.468;2023-09-19T01:31:33;100655.34;;;16.43;86.05
73341;BME280;61578;52.002;5.468;2023-09-19T01:32:08;100718.31;;;16.78;85.86
73341;BME280;61578;52.002;5.468;2023-09-19T01:32:43;100723.69;;;16.78;86.14
73341;BME280;61578;52.002;5.468;2023-09-19T01:33:16;100725.66;;;16.76;86.56
73341;BME280;61578;52.002;5.468;2023-09-19T01:34:00;100718.59;;;16.75;86.01
73341;BME280;61578;52.002;5.468;2023-09-19T01:34:50;100724.09;;;16.73;86.32
73341;BME280;61578;52.002;5.468;2023-09-19T01:35:40;100717.16;;;16.71;85.65
73341;BME280;61578;52.002;5.468;2023-09-19T01:36:11;100714.06;;;16.66;85.46
73341;BME280;61578;52.002;5.468;2023-09-19T01:36:42;100721.25;;;16.65;85.48
73341;BME280;61578;52.002;5.468;2023-09-19T01:37:17;100721.97;;;16.67;85.56
73341;BME280;61578;52.002;5.468;2023-09-19T01:37:50;100724.78;;;16.66;84.51
73341;BME280;61578;52.002;5.468;2023-09-19T01:38:24;100711.66;;;16.63;84.20
73341;BME280;61578;52.002;5.468;2023-09-19T01:38:57;100718.97;;;16.61;84.30
73341;BME280;61578;52.002;5.468;2023-09-19T01:39:36;100687.75;;;16.40;84.50
73341;BME280;61578;52.002;5.468;2023-09-19T01:40:11;100722.78;;;16.58;83.70
73341;BME280;61578;52.002;5.468;2023-09-19T01:41:04;100720.78;;;16.60;84.27
73341;BME280;61578;52.002;5.468;2023-09-19T01:43:43;100725.88;;;16.53;84.60
73341;BME280;61578;52.002;5.468;2023-09-19T01:44:44;100723.31;;;16.52;83.30
73341;BME280;61578;52.002;5.468;2023-09-19T01:46:25;100725.00;;;16.43;84.59
73341;BME280;61578;52.002;5.468;2023-09-19T01:47:04;100729.38;;;16.44;83.83
73341;BME280;61578;52.002;5.468;2023-09-19T01:47:55;100734.03;;;16.42;84.29
73341;BME280;61578;52.002;5.468;2023-09-19T01:49:09;100740.50;;;16.40;84.62
73341;BME280;61578;52.002;5.468;2023-09-19T01:49:57;100734.59;;;16.36;84.19
73341;BME280;61578;52.002;5.468;2023-09-19T01:50:42;100735.72;;;16.34;84.60
73341;BME280;61578;52.002;5.468;2023-09-19T01:51:33;100732.03;;;16.25;83.99
73341;BME280;61578;52.002;5.468;2023-09-19T01:52:13;100736.28;;;16.28;84.18
73341;BME280;61578;52.002;5.468;2023-09-19T01:53:10;100732.16;;;16.24;83.45
73341;BME280;61578;52.002;5.468;2023-09-19T01:54:03;100728.63;;;16.23;84.20
73341;BME280;61578;52.002;5.468;2023-09-19T01:54:51;100695.31;;;15.97;84.74
73341;BME280;61578;52.002;5.468;2023-09-19T01:55:29;100727.63;;;16.14;84.95
73341;BME280;61578;52.002;5.468;2023-09-19T01:56:02;100729.72;;;16.11;84.97
73341;BME280;61578;52.002;5.468;2023-09-19T01:57:42;100732.53;;;16.09;84.10
73341;BME280;61578;52.002;5.468;2023-09-19T01:58:48;100734.53;;;16.07;83.60
73341;BME280;61578;52.002;5.468;2023-09-19T01:59:35;100731.97;;;16.06;83.77
73341;BME280;61578;52.002;5.468;2023-09-19T02:00:14;100739.59;;;16.10;84.35
73341;BME280;61578;52.002;5.468;2023-09-19T02:00:51;100735.22;;;16.09;83.06
73341;BME280;61578;52.002;5.468;2023-09-19T02:01:24;100732.53;;;16.09;82.98
73341;BME280;61578;52.002;5.468;2023-09-19T02:01:58;100732.53;;;16.09;83.47
73341;BME280;61578;52.002;5.468;2023-09-19T02:02:35;100731.69;;;16.09;82.62
73341;BME280;61578;52.002;5.468;2023-09-19T02:03:09;100735.06;;;16.11;82.39
73341;BME280;61578;52.002;5.468;2023-09-19T02:03:42;100734.22;;;16.10;82.31
73341;BME280;61578;52.002;5.468;2023-09-19T02:04:15;100741.28;;;16.11;82.08
73341;BME280;61578;52.002;5.468;2023-09-19T02:04:45;100737.03;;;16.09;82.27
73341;BME280;61578;52.002;5.468;2023-09-19T02:05:23;100694.09;;;15.80;82.99
73341;BME280;61578;52.002;5.468;2023-09-19T02:05:55;100744.81;;;16.12;82.48
73341;BME280;61578;52.002;5.468;2023-09-19T02:06:26;100736.91;;;16.10;82.79
73341;BME280;61578;52.002;5.468;2023-09-19T02:06:58;100706.41;;;15.92;82.42
73341;BME280;61578;52.002;5.468;2023-09-19T02:07:28;100737.63;;;16.12;82.89
73341;BME280;61578;52.002;5.468;2023-09-19T02:08:02;100741.41;;;16.10;82.63
73341;BME280;61578;52.002;5.468;2023-09-19T02:08:33;100735.63;;;16.05;82.72
73341;BME280;61578;52.002;5.468;2023-09-19T02:09:04;100745.38;;;16.06;82.91
73341;BME280;61578;52.002;5.468;2023-09-19T02:09:36;100710.19;;;15.90;82.91
73341;BME280;61578;52.002;5.468;2023-09-19T02:10:09;100747.75;;;16.09;83.13
73341;BME280;61578;52.002;5.468;2023-09-19T02:10:42;100746.34;;;16.05;83.16
73341;BME280;61578;52.002;5.468;2023-09-19T02:11:13;100747.06;;;16.07;82.49
73341;BME280;61578;52.002;5.468;2023-09-19T02:11:44;100740.13;;;16.04;83.27
73341;BME280;61578;52.002;5.468;2023-09-19T02:12:15;100740.72;;;16.08;82.93
73341;BME280;61578;52.002;5.468;2023-09-19T02:12:46;100750.72;;;16.06;82.99
73341;BME280;61578;52.002;5.468;2023-09-19T02:13:18;100740.28;;;16.03;83.08
73341;BME280;61578;52.002;5.468;2023-09-19T02:13:51;100747.47;;;16.02;83.33
73341;BME280;61578;52.002;5.468;2023-09-19T02:14:24;100750.25;;;16.01;83.46
73341;BME280;61578;52.002;5.468;2023-09-19T02:14:55;100750.09;;;15.93;83.01
73341;BME280;61578;52.002;5.468;2023-09-19T02:15:27;100750.56;;;15.98;82.62
73341;BME280;61578;52.002;5.468;2023-09-19T02:15:59;100750.22;;;15.91;83.20
73341;BME280;61578;52.002;5.468;2023-09-19T02:16:30;100743.75;;;15.94;83.06
73341;BME280;61578;52.002;5.468;2023-09-19T02:17:02;100750.81;;;15.95;82.73
73341;BME280;61578;52.002;5.468;2023-09-19T02:17:37;100752.06;;;15.91;82.46
73341;BME280;61578;52.002;5.468;2023-09-19T02:18:08;100753.50;;;15.95;82.91
73341;BME280;61578;52.002;5.468;2023-09-19T02:18:39;100746.69;;;15.91;83.29
73341;BME280;61578;52.002;5.468;2023-09-19T02:19:10;100750.94;;;15.93;83.15
73341;BME280;61578;52.002;5.468;2023-09-19T02:19:40;100745.72;;;15.92;82.04
73341;BME280;61578;52.002;5.468;2023-09-19T02:20:12;100751.06;;;15.92;82.48
73341;BME280;61578;52.002;5.468;2023-09-19T02:20:48;100741.34;;;15.91;82.65
73341;BME280;61578;52.002;5.468;2023-09-19T02:21:19;100741.63;;;15.88;82.79
73341;BME280;61578;52.002;5.468;2023-09-19T02:21:52;100740.78;;;15.87;83.23
73341;BME280;61578;52.002;5.468;2023-09-19T02:22:23;100736.69;;;15.83;82.65
73341;BME280;61578;52.002;5.468;2023-09-19T02:22:55;100737.53;;;15.83;82.05
73341;BME280;61578;52.002;5.468;2023-09-19T02:23:25;100748.94;;;15.86;82.98
73341;BME280;61578;52.002;5.468;2023-09-19T02:24:00;100740.19;;;15.83;82.90
73341;BME280;61578;52.002;5.468;2023-09-19T02:24:31;100728.78;;;15.81;83.04
73341;BME280;61578;52.002;5.468;2023-09-19T02:25:02;100734.13;;;15.81;82.46
73341;BME280;61578;52.002;5.468;2023-09-19T02:25:35;100730.84;;;15.78;82.72
73341;BME280;61578;52.002;5.468;2023-09-19T02:26:08;100697.81;;;15.58;82.63
73341;BME280;61578;52.002;5.468;2023-09-19T02:26:39;100732.84;;;15.76;82.08
73341;BME280;61578;52.002;5.468;2023-09-19T02:27:09;100741.56;;;15.78;81.90
73341;BME280;61578;52.002;5.468;2023-09-19T02:27:43;100741.56;;;15.78;81.88
73341;BME280;61578;52.002;5.468;2023-09-19T02:28:13;100736.22;;;15.78;82.39
73341;BME280;61578;52.002;5.468;2023-09-19T02:28:44;100738.88;;;15.78;82.56
73341;BME280;61578;52.002;5.468;2023-09-19T02:29:16;100706.13;;;15.55;82.20
73341;BME280;61578;52.002;5.468;2023-09-19T02:29:46;100740.88;;;15.76;82.77
73341;BME280;61578;52.002;5.468;2023-09-19T02:30:19;100748.31;;;15.72;82.64
73341;BME280;61578;52.002;5.468;2023-09-19T02:30:59;100738.00;;;15.68;82.43
73341;BME280;61578;52.002;5.468;2023-09-19T02:31:30;100744.34;;;15.67;82.38
73341;BME280;61578;52.002;5.468;2023-09-19T02:32:01;100732.47;;;15.60;82.36
73341;BME280;61578;52.002;5.468;2023-09-19T02:32:38;100741.09;;;15.63;82.60
73341;BME280;61578;52.002;5.468;2023-09-19T02:33:09;100742.91;;;15.63;82.90
73341;BME280;61578;52.002;5.468;2023-09-19T02:33:40;100740.38;;;15.61;82.26
73341;BME280;61578;52.002;5.468;2023-09-19T02:34:11;100749.00;;;15.65;81.37
73341;BME280;61578;52.002;5.468;2023-09-19T02:34:41;100742.44;;;15.58;81.76
73341;BME280;61578;52.002;5.468;2023-09-19T02:35:12;100690.13;;;15.23;82.38
73341;BME280;61578;52.002;5.468;2023-09-19T02:35:44;100747.00;;;15.57;82.57
73341;BME280;61578;52.002;5.468;2023-09-19T02:36:19;100747.00;;;15.57;82.36
73341;BME280;61578;52.002;5.468;2023-09-19T02:36:50;100753.16;;;15.58;81.92
73341;BME280;61578;52.002;5.468;2023-09-19T02:37:22;100717.53;;;15.36;81.07
73341;BME280;61578;52.002;5.468;2023-09-19T02:37:53;100755.00;;;15.57;82.16
73341;BME280;61578;52.002;5.468;2023-09-19T02:38:25;100756.22;;;15.53;82.46
73341;BME280;61578;52.002;5.468;2023-09-19T02:38:56;100761.56;;;15.53;82.36
73341;BME280;61578;52.002;5.468;2023-09-19T02:39:27;100750.88;;;15.53;80.69
73341;BME280;61578;52.002;5.468;2023-09-19T02:39:58;100712.69;;;15.30;80.22
73341;BME280;61578;52.002;5.468;2023-09-19T02:40:29;100757.94;;;15.54;80.38
73341;BME280;61578;52.002;5.468;2023-09-19T02:41:03;100752.34;;;15.57;80.48
73341;BME280;61578;52.002;5.468;2023-09-19T02:41:33;100757.69;;;15.57;81.06
73341;BME280;61578;52.002;5.468;2023-09-19T02:42:04;100753.31;;;15.56;80.70
73341;BME280;61578;52.002;5.468;2023-09-19T02:42:35;100738.16;;;15.45;80.12
73341;BME280;61578;52.002;5.468;2023-09-19T02:43:06;100751.72;;;15.54;79.68
73341;BME280;61578;52.002;5.468;2023-09-19T02:43:38;100756.00;;;15.56;79.34
73341;BME280;61578;52.002;5.468;2023-09-19T02:44:09;100755.38;;;15.53;79.97
73341;BME280;61578;52.002;5.468;2023-09-19T02:44:43;100748.94;;;15.55;80.20
73341;BME280;61578;52.002;5.468;2023-09-19T02:45:17;100752.34;;;15.57;80.24
73341;BME280;61578;52.002;5.468;2023-09-19T02:45:49;100761.56;;;15.53;80.52
73341;BME280;61578;52.002;5.468;2023-09-19T02:46:20;100755.28;;;15.54;81.21
73341;BME280;61578;52.002;5.468;2023-09-19T02:46:51;100749.16;;;15.52;80.51
73341;BME280;61578;52.002;5.468;2023-09-19T02:47:22;100759.03;;;15.52;80.65
73341;BME280;61578;52.002;5.468;2023-09-19T02:47:53;100754.78;;;15.49;80.74
73341;BME280;61578;52.002;5.468;2023-09-19T02:48:25;100761.81;;;15.50;79.62
73341;BME280;61578;52.002;5.468;2023-09-19T02:48:59;100750.69;;;15.45;79.38
73341;BME280;61578;52.002;5.468;2023-09-19T02:49:30;100761.09;;;15.48;78.98
73341;BME280;61578;52.002;5.468;2023-09-19T02:50:00;100759.28;;;15.48;78.62
73341;BME280;61578;52.002;5.468;2023-09-19T02:50:31;100761.38;;;15.45;79.63
73341;BME280;61578;52.002;5.468;2023-09-19T02:51:04;100759.41;;;15.47;78.91
73341;BME280;61578;52.002;5.468;2023-09-19T02:51:35;100758.41;;;15.48;79.63
73341;BME280;61578;52.002;5.468;2023-09-19T02:52:06;100771.81;;;15.48;79.46
73341;BME280;61578;52.002;5.468;2023-09-19T02:52:38;100748.25;;;15.42;79.24
73341;BME280;61578;52.002;5.468;2023-09-19T02:53:09;100761.25;;;15.46;80.26
73341;BME280;61578;52.002;5.468;2023-09-19T02:53:41;100755.31;;;15.43;79.74
73341;BME280;61578;52.002;5.468;2023-09-19T02:54:12;100761.38;;;15.45;80.37
73341;BME280;61578;52.002;5.468;2023-09-19T02:54:44;100765.88;;;15.44;79.56
73341;BME280;61578;52.002;5.468;2023-09-19T02:55:17;100771.38;;;15.43;80.74
73341;BME280;61578;52.002;5.468;2023-09-19T02:55:51;100758.50;;;15.37;80.01
73341;BME280;61578;52.002;5.468;2023-09-19T02:56:22;100763.59;;;15.40;80.19
73341;BME280;61578;52.002;5.468;2023-09-19T02:56:55;100762.88;;;15.38;80.73
73341;BME280;61578;52.002;5.468;2023-09-19T02:57:26;100765.94;;;15.33;80.25
73341;BME280;61578;52.002;5.468;2023-09-19T02:57:58;100770.31;;;15.34;81.27
73341;BME280;61578;52.002;5.468;2023-09-19T02:58:28;100763.53;;;15.30;80.75
73341;BME280;61578;52.002;5.468;2023-09-19T02:59:00;100756.03;;;15.24;80.58
73341;BME280;61578;52.002;5.468;2023-09-19T02:59:32;100761.09;;;15.27;79.92
73341;BME280;61578;52.002;5.468;2023-09-19T03:00:04;100767.03;;;15.31;80.53
73341;BME280;61578;52.002;5.468;2023-09-19T03:00:35;100760.25;;;15.27;80.29
73341;BME280;61578;52.002;5.468;2023-09-19T03:01:12;100760.25;;;15.27;80.76
73341;BME280;61578;52.002;5.468;2023-09-19T03:01:43;100754.09;;;15.26;80.85
73341;BME280;61578;52.002;5.468;2023-09-19T03:02:14;100758.84;;;15.23;81.46
73341;BME280;61578;52.002;5.468;2023-09-19T03:02:49;100772.09;;;15.24;80.92
73341;BME280;61578;52.002;5.468;2023-09-19T03:03:23;100766.84;;;15.23;80.37
73341;BME280;61578;52.002;5.468;2023-09-19T03:03:54;100752.03;;;15.19;78.95
73341;BME280;61578;52.002;5.468;2023-09-19T03:04:25;100720.78;;;14.98;80.16
73341;BME280;61578;52.002;5.468;2023-09-19T03:04:57;100758.84;;;15.23;80.69
73341;BME280;61578;52.002;5.468;2023-09-19T03:05:31;100758.34;;;15.18;80.62
73341;BME280;61578;52.002;5.468;2023-09-19T03:06:05;100762.28;;;15.14;80.54
73341;BME280;61578;52.002;5.468;2023-09-19T03:06:39;100765.22;;;15.10;81.53
73341;BME280;61578;52.002;5.468;2023-09-19T03:07:10;100768.63;;;15.13;81.37
73341;BME280;61578;52.002;5.468;2023-09-19T03:07:41;100767.75;;;15.12;81.39
73341;BME280;61578;52.002;5.468;2023-09-19T03:08:14;100765.22;;;15.10;81.45
73341;BME280;61578;52.002;5.468;2023-09-19T03:08:47;100761.94;;;15.07;81.04
73341;BME280;61578;52.002;5.468;2023-09-19T03:09:20;100762.53;;;15.10;80.33
73341;BME280;61578;52.002;5.468;2023-09-19T03:09:50;100761.09;;;15.06;80.05
73341;BME280;61578;52.002;5.468;2023-09-19T03:10:23;100743.53;;;14.93;80.88
73341;BME280;61578;52.002;5.468;2023-09-19T03:10:55;100765.34;;;15.09;81.96
73341;BME280;61578;52.002;5.468;2023-09-19T03:11:26;100755.03;;;15.04;80.39
73341;BME280;61578;52.002;5.468;2023-09-19T03:11:56;100761.81;;;15.08;80.79
73341;BME280;61578;52.002;5.468;2023-09-19T03:12:27;100761.38;;;15.03;80.98
73341;BME280;61578;52.002;5.468;2023-09-19T03:12:58;100761.38;;;15.03;80.78
73341;BME280;61578;52.002;5.468;2023-09-19T03:13:30;100757.13;;;15.01;81.09